Time,TemperatureF,DewpointF,PressureIn,WindDirection,WindDirectionDegrees,WindSpeedMPH,WindSpeedGustMPH,Humidity,HourlyPrecipIn,Conditions,Clouds,dailyrainin,SoftwareType,DateUTC
2013-09-06 00:01:00,49.5,41.9,30.22,WNW,293,0.9,1.1,75,2.59,,,0.32,WUHU216HW,2013-09-06 04:01:00,
2013-09-06 00:02:00,49.3,41.7,30.22,West,270,0.4,1.1,75,2.59,,,0.32,WUHU216HW,2013-09-06 04:02:00,
2013-09-06 00:07:00,49.1,41.5,30.22,SSE,158,0.0,1.1,75,2.59,,,0.32,WUHU216HW,2013-09-06 04:07:00,
2013-09-06 00:12:00,49.0,41.3,30.22,SSW,203,0.0,1.1,75,2.59,,,0.32,WUHU216HW,2013-09-06 04:12:00,
2013-09-06 00:17:00,49.0,41.3,30.22,SSW,203,0.0,0.0,75,2.59,,,0.32,WUHU216HW,2013-09-06 04:17:00,
2013-09-06 00:22:00,48.8,41.1,30.23,West,270,0.7,0.9,75,2.59,,,0.32,WUHU216HW,2013-09-06 04:22:00,
2013-09-06 00:27:00,48.6,41.3,30.23,SW,225,0.0,0.9,76,2.59,,,0.32,WUHU216HW,2013-09-06 04:27:00,
2013-09-06 00:32:00,48.4,41.1,30.22,NE,45,0.2,0.7,76,2.59,,,0.32,WUHU216HW,2013-09-06 04:32:00,
2013-09-06 00:37:00,48.2,41.3,30.22,SE,135,0.0,1.6,77,2.59,,,0.32,WUHU216HW,2013-09-06 04:37:00,
2013-09-06 00:42:00,48.1,41.5,30.22,ESE,113,1.1,1.6,78,2.59,,,0.32,WUHU216HW,2013-09-06 04:42:00,
2013-09-06 00:47:00,48.1,41.5,30.22,SSE,158,0.4,1.3,78,2.59,,,0.32,WUHU216HW,2013-09-06 04:47:00,
2013-09-06 00:52:00,47.9,41.3,30.22,WNW,293,1.8,2.0,78,2.59,,,0.32,WUHU216HW,2013-09-06 04:52:00,
2013-09-06 00:57:00,47.5,41.0,30.23,SW,225,0.7,2.5,78,2.59,,,0.32,WUHU216HW,2013-09-06 04:57:00,
2013-09-06 01:02:00,47.5,41.0,30.23,South,180,0.0,2.5,78,2.59,,,0.65,WUHU216HW,2013-09-06 05:02:00,
2013-09-06 01:07:00,47.5,41.0,30.23,South,180,0.0,1.1,78,2.59,,,0.65,WUHU216HW,2013-09-06 05:07:00,
2013-09-06 01:12:00,47.5,41.0,30.23,West,270,1.1,1.1,78,2.59,,,0.65,WUHU216HW,2013-09-06 05:12:00,
2013-09-06 01:17:00,47.5,41.3,30.23,SSW,203,0.9,2.2,79,2.59,,,0.65,WUHU216HW,2013-09-06 05:17:00,
2013-09-06 01:22:00,47.7,41.5,30.24,SW,225,0.0,2.2,79,2.59,,,0.65,WUHU216HW,2013-09-06 05:22:00,
2013-09-06 01:27:00,47.7,41.5,30.23,SSW,203,0.0,1.8,79,2.59,,,0.65,WUHU216HW,2013-09-06 05:27:00,
2013-09-06 01:32:00,47.7,41.5,30.24,SW,225,0.4,1.8,79,2.59,,,0.65,WUHU216HW,2013-09-06 05:32:00,
2013-09-06 01:37:00,47.7,41.5,30.24,NNW,338,0.2,0.9,79,2.59,,,0.65,WUHU216HW,2013-09-06 05:37:00,
2013-09-06 01:42:00,47.5,41.7,30.24,NNE,23,0.0,1.1,80,2.59,,,0.65,WUHU216HW,2013-09-06 05:42:00,
2013-09-06 01:47:00,47.3,41.1,30.23,SE,135,0.0,1.1,79,2.59,,,0.65,WUHU216HW,2013-09-06 05:47:00,
2013-09-06 01:52:00,47.2,41.0,30.23,SSW,203,0.0,1.3,79,2.59,,,0.65,WUHU216HW,2013-09-06 05:52:00,
2013-09-06 01:57:00,47.3,41.5,30.23,WSW,248,0.0,1.3,80,2.59,,,0.65,WUHU216HW,2013-09-06 05:57:00,
2013-09-06 02:02:00,47.5,41.7,30.23,SW,225,0.9,1.1,80,2.59,,,0.97,WUHU216HW,2013-09-06 06:02:00,
2013-09-06 02:07:00,47.5,41.7,30.23,WSW,248,1.8,1.8,80,2.59,,,0.97,WUHU216HW,2013-09-06 06:07:00,
2013-09-06 02:12:00,47.5,41.7,30.23,SE,135,0.2,1.8,80,2.59,,,0.97,WUHU216HW,2013-09-06 06:12:00,
2013-09-06 02:17:00,47.5,41.7,30.23,NNE,23,0.0,1.8,80,2.59,,,0.97,WUHU216HW,2013-09-06 06:17:00,
2013-09-06 02:22:00,47.5,41.7,30.23,West,270,0.9,2.5,80,2.59,,,0.97,WUHU216HW,2013-09-06 06:22:00,
2013-09-06 02:27:00,47.3,41.5,30.23,WSW,248,1.1,2.5,80,2.59,,,0.97,WUHU216HW,2013-09-06 06:27:00,
2013-09-06 02:32:00,47.3,41.5,30.23,SSW,203,0.2,1.6,80,2.59,,,0.97,WUHU216HW,2013-09-06 06:32:00,
2013-09-06 02:37:00,47.3,41.5,30.23,SE,135,0.0,1.1,80,2.59,,,0.97,WUHU216HW,2013-09-06 06:37:00,
2013-09-06 02:42:00,47.3,41.5,30.23,SW,225,0.0,1.1,80,2.59,,,0.97,WUHU216HW,2013-09-06 06:42:00,
2013-09-06 02:47:00,47.3,41.5,30.24,SSW,203,0.4,2.0,80,2.59,,,0.97,WUHU216HW,2013-09-06 06:47:00,
2013-09-06 02:52:00,47.3,41.5,30.24,SSW,203,0.0,2.0,80,2.59,,,0.97,WUHU216HW,2013-09-06 06:52:00,
2013-09-06 02:57:00,47.3,41.5,30.24,South,180,0.0,1.1,80,2.59,,,0.97,WUHU216HW,2013-09-06 06:57:00,
2013-09-06 03:02:00,47.5,41.7,30.23,SSW,203,0.0,1.1,80,2.59,,,1.30,WUHU216HW,2013-09-06 07:02:00,
2013-09-06 03:07:00,47.5,41.7,30.23,South,180,0.4,0.9,80,2.59,,,1.30,WUHU216HW,2013-09-06 07:07:00,
2013-09-06 03:12:00,47.5,41.7,30.24,SSW,203,0.7,1.1,80,2.59,,,1.30,WUHU216HW,2013-09-06 07:12:00,
2013-09-06 03:17:00,47.5,41.7,30.24,SSW,203,0.2,1.6,80,2.59,,,1.30,WUHU216HW,2013-09-06 07:17:00,
2013-09-06 03:22:00,47.5,41.7,30.24,South,180,0.7,1.6,80,2.59,,,1.30,WUHU216HW,2013-09-06 07:22:00,
2013-09-06 03:27:00,47.3,41.5,30.24,SSW,203,0.7,1.1,80,2.59,,,1.30,WUHU216HW,2013-09-06 07:27:00,
2013-09-06 03:32:00,47.2,41.3,30.24,SW,225,0.0,1.3,80,2.59,,,1.30,WUHU216HW,2013-09-06 07:32:00,
2013-09-06 03:37:00,47.2,41.3,30.24,West,270,0.0,1.3,80,2.59,,,1.30,WUHU216HW,2013-09-06 07:37:00,
2013-09-06 03:42:00,47.2,41.3,30.24,SW,225,0.7,1.1,80,2.59,,,1.30,WUHU216HW,2013-09-06 07:42:00,
2013-09-06 03:47:00,47.2,41.3,30.24,SE,135,0.4,1.3,80,2.59,,,1.30,WUHU216HW,2013-09-06 07:47:00,
2013-09-06 03:52:00,47.0,40.9,30.24,SSW,203,0.2,1.8,79,2.59,,,1.30,WUHU216HW,2013-09-06 07:52:00,
2013-09-06 03:57:00,46.8,40.7,30.24,SSW,203,1.1,1.8,79,2.59,,,1.30,WUHU216HW,2013-09-06 07:57:00,
2013-09-06 04:02:00,46.6,40.5,30.24,South,180,0.7,2.5,79,2.59,,,1.62,WUHU216HW,2013-09-06 08:02:00,
2013-09-06 04:07:00,46.8,41.1,30.24,SW,225,1.1,2.5,80,2.59,,,1.62,WUHU216HW,2013-09-06 08:07:00,
2013-09-06 04:12:00,46.6,40.9,30.24,SW,225,1.1,2.2,80,2.59,,,1.62,WUHU216HW,2013-09-06 08:12:00,
2013-09-06 04:17:00,46.6,40.9,30.24,ESE,113,0.0,2.2,80,2.59,,,1.62,WUHU216HW,2013-09-06 08:17:00,
2013-09-06 04:22:00,46.6,40.9,30.24,West,270,0.7,2.2,80,2.59,,,1.62,WUHU216HW,2013-09-06 08:22:00,
2013-09-06 04:27:00,46.6,40.9,30.24,West,270,0.0,1.8,80,2.59,,,1.62,WUHU216HW,2013-09-06 08:27:00,
2013-09-06 04:32:00,46.6,40.9,30.24,WSW,248,0.0,1.8,80,2.59,,,1.62,WUHU216HW,2013-09-06 08:32:00,
2013-09-06 04:37:00,46.6,40.9,30.24,WSW,248,0.4,1.1,80,2.59,,,1.62,WUHU216HW,2013-09-06 08:37:00,
2013-09-06 04:42:00,46.4,40.7,30.25,West,270,0.2,1.1,80,2.59,,,1.62,WUHU216HW,2013-09-06 08:42:00,
2013-09-06 04:47:00,46.4,40.7,30.24,SSW,203,1.8,1.8,80,2.59,,,1.62,WUHU216HW,2013-09-06 08:47:00,
2013-09-06 04:52:00,46.4,40.7,30.25,West,270,0.4,2.5,80,2.59,,,1.62,WUHU216HW,2013-09-06 08:52:00,
2013-09-06 04:57:00,46.4,40.7,30.25,SW,225,1.6,2.5,80,2.59,,,1.62,WUHU216HW,2013-09-06 08:57:00,
2013-09-06 05:02:00,46.3,40.5,30.25,SW,225,0.7,2.9,80,2.59,,,1.95,WUHU216HW,2013-09-06 09:02:00,
2013-09-06 05:07:00,46.3,40.5,30.25,SSW,203,1.3,2.9,80,2.59,,,1.95,WUHU216HW,2013-09-06 09:07:00,
2013-09-06 05:12:00,46.3,40.5,30.25,WSW,248,1.8,2.0,80,2.59,,,1.95,WUHU216HW,2013-09-06 09:12:00,
2013-09-06 05:17:00,46.1,40.6,30.24,SW,225,1.1,2.0,81,2.59,,,1.95,WUHU216HW,2013-09-06 09:17:00,
2013-09-06 05:22:00,46.1,40.3,30.25,West,270,0.0,1.8,80,2.59,,,1.95,WUHU216HW,2013-09-06 09:22:00,
2013-09-06 05:27:00,46.1,40.6,30.24,SSW,203,1.1,2.0,81,2.59,,,1.95,WUHU216HW,2013-09-06 09:27:00,
2013-09-06 05:32:00,45.9,40.4,30.25,SSW,203,0.4,3.1,81,2.59,,,1.95,WUHU216HW,2013-09-06 09:32:00,
2013-09-06 05:37:00,45.7,40.2,30.25,WSW,248,0.4,3.1,81,2.59,,,1.95,WUHU216HW,2013-09-06 09:37:00,
2013-09-06 05:42:00,45.7,40.2,30.25,West,270,1.1,1.3,81,2.59,,,1.95,WUHU216HW,2013-09-06 09:42:00,
2013-09-06 05:47:00,45.7,40.2,30.25,SSW,203,0.7,1.6,81,2.59,,,1.95,WUHU216HW,2013-09-06 09:47:00,
2013-09-06 05:52:00,45.7,40.2,30.25,WNW,293,1.1,1.8,81,2.59,,,1.95,WUHU216HW,2013-09-06 09:52:00,
2013-09-06 05:57:00,45.5,40.1,30.25,West,270,0.9,1.8,81,2.59,,,1.95,WUHU216HW,2013-09-06 09:57:00,
2013-09-06 06:02:00,45.5,40.1,30.25,SW,225,2.2,2.2,81,2.59,,,2.28,WUHU216HW,2013-09-06 10:02:00,
2013-09-06 06:07:00,45.5,40.1,30.25,SW,225,2.7,2.7,81,2.59,,,2.28,WUHU216HW,2013-09-06 10:07:00,
2013-09-06 06:12:00,45.5,40.1,30.26,SW,225,0.9,2.7,81,2.59,,,2.28,WUHU216HW,2013-09-06 10:12:00,
2013-09-06 06:17:00,45.5,40.1,30.26,WSW,248,1.8,1.8,81,2.59,,,2.28,WUHU216HW,2013-09-06 10:17:00,
2013-09-06 06:22:00,45.5,40.1,30.26,SW,225,1.1,1.8,81,2.59,,,2.28,WUHU216HW,2013-09-06 10:22:00,
2013-09-06 06:27:00,45.4,39.9,30.26,West,270,0.7,1.8,81,2.59,,,2.28,WUHU216HW,2013-09-06 10:27:00,
2013-09-06 06:32:00,45.2,39.7,30.26,South,180,0.7,1.8,81,2.59,,,2.28,WUHU216HW,2013-09-06 10:32:00,
2013-09-06 06:37:00,45.2,39.7,30.26,NW,315,0.0,1.8,81,2.59,,,2.28,WUHU216HW,2013-09-06 10:37:00,
2013-09-06 06:42:00,45.2,39.7,30.26,SSE,158,0.0,0.7,81,2.59,,,2.28,WUHU216HW,2013-09-06 10:42:00,
2013-09-06 06:47:00,45.4,39.9,30.26,SSE,158,0.0,1.6,81,2.59,,,2.28,WUHU216HW,2013-09-06 10:47:00,
2013-09-06 06:52:00,45.2,39.7,30.26,West,270,0.4,1.6,81,2.59,,,2.28,WUHU216HW,2013-09-06 10:52:00,
2013-09-06 06:57:00,45.2,39.7,30.26,SSW,203,1.6,1.6,81,2.59,,,2.28,WUHU216HW,2013-09-06 10:57:00,
2013-09-06 07:02:00,45.2,39.7,30.26,SSW,203,0.9,2.2,81,2.59,,,2.60,WUHU216HW,2013-09-06 11:02:00,
2013-09-06 07:07:00,45.2,40.1,30.27,South,180,1.1,2.2,82,2.59,,,2.60,WUHU216HW,2013-09-06 11:07:00,
2013-09-06 07:12:00,45.0,39.9,30.27,WSW,248,1.3,2.2,82,2.59,,,2.60,WUHU216HW,2013-09-06 11:12:00,
2013-09-06 07:17:00,45.0,39.9,30.27,NW,315,0.4,2.2,82,2.59,,,2.60,WUHU216HW,2013-09-06 11:17:00,
2013-09-06 07:22:00,45.0,39.9,30.27,WSW,248,2.0,2.0,82,2.59,,,2.60,WUHU216HW,2013-09-06 11:22:00,
2013-09-06 07:27:00,45.0,39.9,30.27,SW,225,2.0,2.0,82,2.59,,,2.60,WUHU216HW,2013-09-06 11:27:00,
2013-09-06 07:32:00,45.0,39.9,30.27,South,180,1.8,2.5,82,2.59,,,2.60,WUHU216HW,2013-09-06 11:32:00,
2013-09-06 07:37:00,45.2,40.1,30.27,WSW,248,2.9,2.9,82,2.59,,,2.60,WUHU216HW,2013-09-06 11:37:00,
2013-09-06 07:42:00,45.2,40.1,30.27,WSW,248,1.8,2.9,82,2.59,,,2.60,WUHU216HW,2013-09-06 11:42:00,
2013-09-06 07:47:00,45.2,40.3,30.27,SW,225,1.6,2.5,83,2.59,,,2.60,WUHU216HW,2013-09-06 11:47:00,
2013-09-06 07:52:00,45.4,40.5,30.27,South,180,0.4,2.5,83,2.59,,,2.60,WUHU216HW,2013-09-06 11:52:00,
2013-09-06 07:57:00,45.7,40.9,30.27,SSW,203,2.7,2.7,83,2.59,,,2.60,WUHU216HW,2013-09-06 11:57:00,
2013-09-06 08:02:00,45.7,40.9,30.28,NW,315,0.4,2.7,83,5.18,,,3.25,WUHU216HW,2013-09-06 12:02:00,
2013-09-06 08:07:00,46.1,41.2,30.28,SW,225,0.4,2.0,83,5.18,,,3.25,WUHU216HW,2013-09-06 12:07:00,
2013-09-06 08:12:00,46.1,41.2,30.28,SSW,203,0.0,2.0,83,5.18,,,3.25,WUHU216HW,2013-09-06 12:12:00,
2013-09-06 08:17:00,46.4,41.6,30.28,West,270,0.4,1.3,83,5.18,,,3.25,WUHU216HW,2013-09-06 12:17:00,
2013-09-06 08:22:00,46.4,41.6,30.28,SSW,203,0.4,1.3,83,5.18,,,3.25,WUHU216HW,2013-09-06 12:22:00,
2013-09-06 08:27:00,46.8,42.0,30.28,SSW,203,0.2,1.3,83,5.18,,,3.25,WUHU216HW,2013-09-06 12:27:00,
2013-09-06 08:32:00,47.2,42.3,30.28,SSW,203,0.7,1.3,83,5.18,,,3.25,WUHU216HW,2013-09-06 12:32:00,
2013-09-06 08:37:00,47.3,42.5,30.28,SSE,158,0.4,1.8,83,5.18,,,3.25,WUHU216HW,2013-09-06 12:37:00,
2013-09-06 08:42:00,47.7,42.8,30.27,SSW,203,1.6,2.0,83,5.18,,,3.25,WUHU216HW,2013-09-06 12:42:00,
2013-09-06 08:47:00,47.9,42.9,30.28,SSW,203,0.4,2.0,83,5.18,,,3.25,WUHU216HW,2013-09-06 12:47:00,
2013-09-06 08:52:00,48.2,43.3,30.28,SSE,158,0.9,1.6,83,5.18,,,3.25,WUHU216HW,2013-09-06 12:52:00,
2013-09-06 08:57:00,48.6,43.7,30.28,SSE,158,2.0,2.0,83,2.59,,,3.25,WUHU216HW,2013-09-06 12:57:00,
2013-09-06 09:02:00,49.1,44.5,30.28,SSW,203,1.8,2.7,84,2.59,,,3.58,WUHU216HW,2013-09-06 13:02:00,
2013-09-06 09:07:00,49.5,44.8,30.28,South,180,1.8,3.1,84,2.59,,,3.58,WUHU216HW,2013-09-06 13:07:00,
2013-09-06 09:12:00,49.9,45.2,30.27,South,180,2.0,3.1,84,2.59,,,3.58,WUHU216HW,2013-09-06 13:12:00,
2013-09-06 09:17:00,50.4,45.7,30.27,South,180,2.5,2.5,84,2.59,,,3.58,WUHU216HW,2013-09-06 13:17:00,
2013-09-06 09:22:00,50.9,46.3,30.27,SW,225,1.1,2.5,84,2.59,,,3.58,WUHU216HW,2013-09-06 13:22:00,
2013-09-06 09:27:00,51.5,46.4,30.28,South,180,1.3,3.4,83,2.59,,,3.58,WUHU216HW,2013-09-06 13:27:00,
2013-09-06 09:32:00,52.0,46.7,30.28,WSW,248,2.0,3.4,82,2.59,,,3.58,WUHU216HW,2013-09-06 13:32:00,
2013-09-06 09:37:00,52.6,47.3,30.28,NW,315,2.0,2.9,82,2.59,,,3.58,WUHU216HW,2013-09-06 13:37:00,
2013-09-06 09:42:00,52.9,47.3,30.28,SW,225,1.8,3.1,81,2.59,,,3.58,WUHU216HW,2013-09-06 13:42:00,
2013-09-06 09:47:00,53.5,47.8,30.28,South,180,0.7,3.1,81,2.59,,,3.58,WUHU216HW,2013-09-06 13:47:00,
2013-09-06 09:52:00,53.8,48.2,30.28,South,180,2.7,2.9,81,2.59,,,3.58,WUHU216HW,2013-09-06 13:52:00,
2013-09-06 09:57:00,54.4,48.3,30.28,NW,315,2.7,2.9,80,2.59,,,3.58,WUHU216HW,2013-09-06 13:57:00,
2013-09-06 10:02:00,55.1,48.3,30.27,SE,135,0.7,3.6,78,2.59,,,3.90,WUHU216HW,2013-09-06 14:02:00,
2013-09-06 10:07:00,55.4,48.6,30.28,NW,315,0.9,3.6,78,2.59,,,3.90,WUHU216HW,2013-09-06 14:07:00,
2013-09-06 10:12:00,55.8,49.0,30.27,West,270,1.1,3.6,78,2.59,,,3.90,WUHU216HW,2013-09-06 14:12:00,
2013-09-06 10:17:00,56.3,48.8,30.27,West,270,0.4,3.6,76,2.59,,,3.90,WUHU216HW,2013-09-06 14:17:00,
2013-09-06 10:22:00,56.9,47.9,30.27,NNW,338,1.8,6.9,72,2.59,,,3.90,WUHU216HW,2013-09-06 14:22:00,
2013-09-06 10:27:00,57.2,47.9,30.27,WNW,293,5.1,6.9,71,2.59,,,3.90,WUHU216HW,2013-09-06 14:27:00,
2013-09-06 10:32:00,58.0,47.9,30.28,NW,315,6.3,6.3,69,2.59,,,3.90,WUHU216HW,2013-09-06 14:32:00,
2013-09-06 10:37:00,58.1,47.6,30.28,SE,135,1.1,6.3,68,2.59,,,3.90,WUHU216HW,2013-09-06 14:37:00,
2013-09-06 10:42:00,58.3,47.0,30.28,NNE,23,2.0,6.3,66,2.59,,,3.90,WUHU216HW,2013-09-06 14:42:00,
2013-09-06 10:47:00,58.7,46.9,30.28,NNW,338,1.8,5.8,65,2.59,,,3.90,WUHU216HW,2013-09-06 14:47:00,
2013-09-06 10:52:00,59.2,47.0,30.28,NW,315,4.5,7.2,64,2.59,,,3.90,WUHU216HW,2013-09-06 14:52:00,
2013-09-06 10:57:00,59.6,46.5,30.28,NNW,338,5.6,7.2,62,2.59,,,3.90,WUHU216HW,2013-09-06 14:57:00,
2013-09-06 11:02:00,59.9,47.4,30.28,SW,225,2.2,6.5,63,2.59,,,4.23,WUHU216HW,2013-09-06 15:02:00,
2013-09-06 11:07:00,60.1,46.3,30.28,NW,315,4.9,8.5,60,2.59,,,4.23,WUHU216HW,2013-09-06 15:07:00,
2013-09-06 11:12:00,60.3,45.0,30.28,NNW,338,4.3,8.5,57,2.59,,,4.23,WUHU216HW,2013-09-06 15:12:00,
2013-09-06 11:17:00,60.5,45.6,30.27,NNW,338,1.3,6.9,58,2.59,,,4.23,WUHU216HW,2013-09-06 15:17:00,
2013-09-06 11:22:00,60.7,45.4,30.27,North,0,5.4,6.9,57,2.59,,,4.23,WUHU216HW,2013-09-06 15:22:00,
2013-09-06 11:27:00,60.8,45.0,30.27,NNW,338,3.4,6.9,56,2.59,,,4.23,WUHU216HW,2013-09-06 15:27:00,
2013-09-06 11:32:00,61.2,45.4,30.27,NW,315,4.3,7.4,56,2.59,,,4.23,WUHU216HW,2013-09-06 15:32:00,
2013-09-06 11:37:00,61.6,45.2,30.27,NNW,338,6.3,7.4,55,2.59,,,4.23,WUHU216HW,2013-09-06 15:37:00,
2013-09-06 11:42:00,61.6,44.7,30.27,NW,315,4.0,7.6,54,2.59,,,4.23,WUHU216HW,2013-09-06 15:42:00,
2013-09-06 11:47:00,61.9,45.0,30.26,NW,315,6.5,7.6,54,2.59,,,4.23,WUHU216HW,2013-09-06 15:47:00,
2013-09-06 11:52:00,62.1,45.2,30.26,SSE,158,2.7,6.9,54,2.59,,,4.23,WUHU216HW,2013-09-06 15:52:00,
2013-09-06 11:57:00,62.6,44.2,30.26,NW,315,1.6,6.5,51,2.59,,,4.23,WUHU216HW,2013-09-06 15:57:00,
2013-09-06 12:02:00,62.8,43.9,30.25,North,0,1.8,5.6,50,2.59,,,4.55,WUHU216HW,2013-09-06 16:02:00,
2013-09-06 12:07:00,62.8,44.4,30.25,NW,315,5.1,8.5,51,2.59,,,4.55,WUHU216HW,2013-09-06 16:07:00,
2013-09-06 12:12:00,63.0,44.6,30.25,NNW,338,5.6,8.5,51,2.59,,,4.55,WUHU216HW,2013-09-06 16:12:00,
2013-09-06 12:17:00,63.7,46.2,30.25,ESE,113,0.7,6.9,53,2.59,,,4.55,WUHU216HW,2013-09-06 16:17:00,
2013-09-06 12:22:00,64.3,44.7,30.25,NW,315,6.7,8.5,49,2.59,,,4.55,WUHU216HW,2013-09-06 16:22:00,
2013-09-06 12:27:00,63.9,44.9,30.25,NW,315,4.0,8.5,50,2.59,,,4.55,WUHU216HW,2013-09-06 16:27:00,
2013-09-06 12:32:00,63.9,44.9,30.24,SSW,203,2.0,6.7,50,2.59,,,4.55,WUHU216HW,2013-09-06 16:32:00,
2013-09-06 12:37:00,64.6,46.0,30.24,SW,225,4.0,5.6,51,2.59,,,4.55,WUHU216HW,2013-09-06 16:37:00,
2013-09-06 12:42:00,65.3,46.7,30.24,NW,315,2.0,6.5,51,2.59,,,4.55,WUHU216HW,2013-09-06 16:42:00,
2013-09-06 12:47:00,65.0,45.4,30.23,WSW,248,2.2,6.9,49,2.59,,,4.55,WUHU216HW,2013-09-06 16:47:00,
2013-09-06 12:52:00,65.0,45.4,30.23,WSW,248,4.7,6.9,49,2.59,,,4.55,WUHU216HW,2013-09-06 16:52:00,
2013-09-06 12:57:00,65.7,47.1,30.23,NNW,338,0.7,6.9,51,2.59,,,4.55,WUHU216HW,2013-09-06 16:57:00,
2013-09-06 13:02:00,66.4,46.7,30.23,NNW,338,3.8,4.9,49,2.59,,,4.88,WUHU216HW,2013-09-06 17:02:00,
2013-09-06 13:07:00,66.2,46.5,30.23,SSW,203,1.8,8.7,49,2.59,,,4.88,WUHU216HW,2013-09-06 17:07:00,
2013-09-06 13:12:00,66.2,46.5,30.22,NW,315,6.7,8.7,49,2.59,,,4.88,WUHU216HW,2013-09-06 17:12:00,
2013-09-06 13:17:00,66.2,44.8,30.22,West,270,3.4,6.9,46,2.59,,,4.88,WUHU216HW,2013-09-06 17:17:00,
2013-09-06 13:21:00,66.6,46.3,30.22,NNW,338,2.2,6.9,48,2.59,,,4.88,WUHU216HW,2013-09-06 17:21:00,
2013-09-06 13:26:00,67.0,46.0,30.22,NW,315,10.5,10.5,47,2.59,,,4.88,WUHU216HW,2013-09-06 17:26:00,
2013-09-06 13:31:00,66.2,45.4,30.22,NW,315,5.8,10.5,47,2.59,,,4.88,WUHU216HW,2013-09-06 17:31:00,
2013-09-06 13:36:00,66.6,45.7,30.22,NW,315,2.2,10.5,47,2.59,,,4.88,WUHU216HW,2013-09-06 17:36:00,
2013-09-06 13:41:00,67.1,46.2,30.22,NNW,338,4.7,6.7,47,2.59,,,4.88,WUHU216HW,2013-09-06 17:41:00,
2013-09-06 13:46:00,67.7,46.1,30.22,West,270,3.6,6.7,46,2.59,,,4.88,WUHU216HW,2013-09-06 17:46:00,
2013-09-06 13:51:00,67.1,45.6,30.22,West,270,2.7,7.6,46,2.59,,,4.88,WUHU216HW,2013-09-06 17:51:00,
2013-09-06 13:56:00,67.7,46.7,30.22,WNW,293,5.4,7.6,47,2.59,,,4.88,WUHU216HW,2013-09-06 17:56:00,
2013-09-06 14:01:00,68.0,47.0,30.22,NNW,338,1.8,6.3,47,2.59,,,5.20,WUHU216HW,2013-09-06 18:01:00,
2013-09-06 14:06:00,68.8,47.1,30.21,NW,315,5.8,5.8,46,2.59,,,5.20,WUHU216HW,2013-09-06 18:06:00,
2013-09-06 14:11:00,68.9,47.3,30.21,NW,315,6.5,8.5,46,2.59,,,5.20,WUHU216HW,2013-09-06 18:11:00,
2013-09-06 14:16:00,68.8,47.6,30.21,NW,315,2.7,8.5,47,2.59,,,5.20,WUHU216HW,2013-09-06 18:16:00,
2013-09-06 14:21:00,68.9,47.8,30.21,NNW,338,2.5,7.2,47,2.59,,,5.20,WUHU216HW,2013-09-06 18:21:00,
2013-09-06 14:26:00,69.1,48.0,30.20,NNW,338,2.2,6.7,47,2.59,,,5.20,WUHU216HW,2013-09-06 18:26:00,
2013-09-06 14:31:00,69.8,48.6,30.20,NNW,338,4.0,5.6,47,2.59,,,5.20,WUHU216HW,2013-09-06 18:31:00,
2013-09-06 14:36:00,69.7,47.9,30.20,NNW,338,4.0,6.9,46,2.59,,,5.20,WUHU216HW,2013-09-06 18:36:00,
2013-09-06 14:41:00,69.3,48.2,30.20,NW,315,3.1,6.9,47,2.59,,,5.20,WUHU216HW,2013-09-06 18:41:00,
2013-09-06 14:46:00,69.1,48.0,30.20,NNW,338,2.0,4.7,47,2.59,,,5.20,WUHU216HW,2013-09-06 18:46:00,
2013-09-06 14:51:00,68.4,46.7,30.20,NW,315,6.9,7.4,46,2.59,,,5.20,WUHU216HW,2013-09-06 18:51:00,
2013-09-06 14:56:00,68.0,47.6,30.19,WSW,248,6.7,7.4,48,2.59,,,5.20,WUHU216HW,2013-09-06 18:56:00,
2013-09-06 15:01:00,68.8,48.2,30.19,NW,315,1.6,7.4,48,2.59,,,5.53,WUHU216HW,2013-09-06 19:01:00,
2013-09-06 15:06:00,68.9,47.8,30.19,NNW,338,5.8,8.5,47,2.59,,,5.53,WUHU216HW,2013-09-06 19:06:00,
2013-09-06 15:11:00,69.1,48.6,30.19,WNW,293,3.6,8.5,48,2.59,,,5.53,WUHU216HW,2013-09-06 19:11:00,
2013-09-06 15:16:00,69.8,49.8,30.19,WSW,248,4.7,7.8,49,2.59,,,5.53,WUHU216HW,2013-09-06 19:16:00,
2013-09-06 15:21:00,70.7,49.4,30.18,NNW,338,2.5,6.3,47,2.59,,,5.53,WUHU216HW,2013-09-06 19:21:00,
2013-09-06 15:26:00,70.9,49.6,30.18,West,270,2.5,7.4,47,2.59,,,5.53,WUHU216HW,2013-09-06 19:26:00,
2013-09-06 15:31:00,70.9,49.6,30.18,WNW,293,7.6,7.6,47,2.59,,,5.53,WUHU216HW,2013-09-06 19:31:00,
2013-09-06 15:36:00,70.7,49.4,30.17,NW,315,3.8,11.4,47,2.59,,,5.53,WUHU216HW,2013-09-06 19:36:00,
2013-09-06 15:41:00,70.9,50.2,30.17,NW,315,7.8,11.4,48,2.59,,,5.53,WUHU216HW,2013-09-06 19:41:00,
2013-09-06 15:46:00,70.7,49.4,30.17,NW,315,2.2,7.8,47,2.59,,,5.53,WUHU216HW,2013-09-06 19:46:00,
2013-09-06 15:51:00,70.4,49.2,30.17,WNW,293,10.7,10.7,47,2.59,,,5.53,WUHU216HW,2013-09-06 19:51:00,
2013-09-06 15:56:00,69.7,49.1,30.17,NW,315,6.3,10.7,48,2.59,,,5.53,WUHU216HW,2013-09-06 19:56:00,
2013-09-06 16:01:00,69.5,48.9,30.17,NW,315,3.4,8.7,48,2.59,,,5.85,WUHU216HW,2013-09-06 20:01:00,
2013-09-06 16:06:00,69.7,49.7,30.17,WNW,293,4.0,8.7,49,2.59,,,5.85,WUHU216HW,2013-09-06 20:06:00,
2013-09-06 16:11:00,70.2,50.1,30.17,WNW,293,4.7,10.3,49,2.59,,,5.85,WUHU216HW,2013-09-06 20:11:00,
2013-09-06 16:16:00,69.7,49.7,30.17,NNW,338,2.7,10.3,49,2.59,,,5.85,WUHU216HW,2013-09-06 20:16:00,
2013-09-06 16:21:00,69.5,48.9,30.16,North,0,2.5,7.2,48,2.59,,,5.85,WUHU216HW,2013-09-06 20:21:00,
2013-09-06 16:26:00,69.5,48.9,30.16,NNW,338,6.9,6.9,48,2.59,,,5.85,WUHU216HW,2013-09-06 20:26:00,
2013-09-06 16:31:00,69.1,49.1,30.16,NNW,338,3.6,6.9,49,2.59,,,5.85,WUHU216HW,2013-09-06 20:31:00,
2013-09-06 16:36:00,69.5,49.5,30.16,NW,315,2.7,7.2,49,2.59,,,5.85,WUHU216HW,2013-09-06 20:36:00,
2013-09-06 16:41:00,69.5,49.5,30.16,NNW,338,6.7,8.1,49,2.59,,,5.85,WUHU216HW,2013-09-06 20:41:00,
2013-09-06 16:46:00,69.3,48.2,30.16,NW,315,7.6,8.5,47,2.59,,,5.85,WUHU216HW,2013-09-06 20:46:00,
2013-09-06 16:51:00,69.3,48.2,30.16,NW,315,2.9,8.5,47,2.59,,,5.85,WUHU216HW,2013-09-06 20:51:00,
2013-09-06 16:56:00,69.5,48.3,30.16,West,270,6.9,6.9,47,2.59,,,5.85,WUHU216HW,2013-09-06 20:56:00,
2013-09-06 17:01:00,68.6,47.5,30.16,NNW,338,2.7,7.6,47,2.59,,,6.18,WUHU216HW,2013-09-06 21:01:00,
2013-09-06 17:06:00,68.6,47.5,30.16,NW,315,4.7,7.6,47,2.59,,,6.18,WUHU216HW,2013-09-06 21:06:00,
2013-09-06 17:11:00,68.6,48.1,30.16,NW,315,5.4,7.2,48,2.59,,,6.18,WUHU216HW,2013-09-06 21:11:00,
2013-09-06 17:16:00,68.8,48.2,30.16,WNW,293,2.7,7.2,48,2.59,,,6.18,WUHU216HW,2013-09-06 21:16:00,
2013-09-06 17:21:00,69.3,49.3,30.16,West,270,5.1,5.6,49,2.59,,,6.18,WUHU216HW,2013-09-06 21:21:00,
2013-09-06 17:26:00,69.7,49.7,30.16,West,270,3.4,5.1,49,2.59,,,6.18,WUHU216HW,2013-09-06 21:26:00,
2013-09-06 17:31:00,69.7,49.7,30.16,NNW,338,5.4,5.4,49,2.59,,,6.18,WUHU216HW,2013-09-06 21:31:00,
2013-09-06 17:36:00,69.8,49.2,30.16,NW,315,1.6,5.4,48,2.59,,,6.18,WUHU216HW,2013-09-06 21:36:00,
2013-09-06 17:41:00,70.4,49.7,30.15,NW,315,1.3,5.4,48,2.59,,,6.18,WUHU216HW,2013-09-06 21:41:00,
2013-09-06 17:46:00,70.2,49.5,30.15,NW,315,3.4,3.8,48,2.59,,,6.18,WUHU216HW,2013-09-06 21:46:00,
2013-09-06 17:51:00,69.7,49.7,30.15,North,0,3.4,3.8,49,2.59,,,6.18,WUHU216HW,2013-09-06 21:51:00,
2013-09-06 17:56:00,69.8,49.8,30.15,NNW,338,1.8,3.8,49,2.59,,,6.18,WUHU216HW,2013-09-06 21:56:00,
2013-09-06 18:01:00,69.7,49.7,30.15,NNW,338,2.5,4.9,49,2.59,,,6.50,WUHU216HW,2013-09-06 22:01:00,
2013-09-06 18:06:00,69.5,49.5,30.15,NW,315,1.3,5.8,49,2.59,,,6.50,WUHU216HW,2013-09-06 22:06:00,
2013-09-06 18:11:00,69.5,50.0,30.16,NNE,23,1.6,5.8,50,2.59,,,6.50,WUHU216HW,2013-09-06 22:11:00,
2013-09-06 18:16:00,69.3,49.3,30.16,NW,315,2.5,3.4,49,2.59,,,6.50,WUHU216HW,2013-09-06 22:16:00,
2013-09-06 18:21:00,69.5,50.6,30.16,WSW,248,2.0,4.7,51,2.59,,,6.50,WUHU216HW,2013-09-06 22:21:00,
2013-09-06 18:26:00,69.5,50.0,30.16,NW,315,4.9,6.3,50,2.59,,,6.50,WUHU216HW,2013-09-06 22:26:00,
2013-09-06 18:31:00,69.5,49.5,30.16,WNW,293,1.8,6.3,49,2.59,,,6.50,WUHU216HW,2013-09-06 22:31:00,
2013-09-06 18:37:00,69.5,50.0,30.16,West,270,3.8,4.9,50,2.59,,,6.50,WUHU216HW,2013-09-06 22:37:00,
2013-09-06 18:42:00,68.9,49.6,30.15,NNW,338,1.6,5.1,50,2.59,,,6.50,WUHU216HW,2013-09-06 22:42:00,
2013-09-06 18:47:00,68.8,50.0,30.15,NNW,338,3.4,5.1,51,2.59,,,6.50,WUHU216HW,2013-09-06 22:47:00,
2013-09-06 18:52:00,68.0,49.2,30.16,NW,315,3.8,4.5,51,2.59,,,6.50,WUHU216HW,2013-09-06 22:52:00,
2013-09-06 18:57:00,67.5,49.2,30.15,WSW,248,1.1,4.5,52,2.59,,,6.50,WUHU216HW,2013-09-06 22:57:00,
2013-09-06 19:02:00,67.1,49.4,30.15,West,270,2.7,4.3,53,2.59,,,6.82,WUHU216HW,2013-09-06 23:02:00,
2013-09-06 19:07:00,66.8,49.6,30.14,West,270,2.9,3.6,54,2.59,,,6.82,WUHU216HW,2013-09-06 23:07:00,
2013-09-06 19:12:00,66.1,49.4,30.14,WNW,293,2.2,4.7,55,2.59,,,6.82,WUHU216HW,2013-09-06 23:12:00,
2013-09-06 19:17:00,65.5,48.9,30.14,WNW,293,2.5,4.7,55,2.59,,,6.82,WUHU216HW,2013-09-06 23:17:00,
2013-09-06 19:22:00,65.2,49.0,30.15,NW,315,3.4,3.4,56,2.59,,,6.82,WUHU216HW,2013-09-06 23:22:00,
2013-09-06 19:27:00,65.2,49.0,30.14,WNW,293,2.2,3.4,56,2.59,,,6.82,WUHU216HW,2013-09-06 23:27:00,
2013-09-06 19:32:00,64.8,49.2,30.14,NW,315,1.6,3.4,57,2.59,,,6.82,WUHU216HW,2013-09-06 23:32:00,
2013-09-06 19:37:00,64.4,49.2,30.14,WNW,293,2.2,3.4,58,2.59,,,6.82,WUHU216HW,2013-09-06 23:37:00,
2013-09-06 19:42:00,64.1,49.0,30.14,West,270,1.8,2.5,58,2.59,,,6.82,WUHU216HW,2013-09-06 23:42:00,
2013-09-06 19:47:00,63.9,49.2,30.14,WNW,293,1.6,2.5,59,2.59,,,6.82,WUHU216HW,2013-09-06 23:47:00,
2013-09-06 19:52:00,63.7,49.1,30.14,SW,225,0.0,2.2,59,2.59,,,6.82,WUHU216HW,2013-09-06 23:52:00,
2013-09-06 19:57:00,63.7,49.6,30.14,WSW,248,0.7,1.8,60,2.59,,,6.82,WUHU216HW,2013-09-06 23:57:00,
2013-09-06 20:02:00,63.9,50.1,30.14,SW,225,0.0,0.7,61,2.59,,,7.15,WUHU216HW,2013-09-07 00:02:00,
2013-09-06 20:07:00,64.1,50.3,30.14,SSW,203,0.4,1.1,61,2.59,,,7.15,WUHU216HW,2013-09-07 00:07:00,
2013-09-06 20:12:00,63.9,50.1,30.13,SSW,203,0.4,1.1,61,2.59,,,7.15,WUHU216HW,2013-09-07 00:12:00,
2013-09-06 20:17:00,63.7,50.4,30.13,SSW,203,0.9,1.1,62,2.59,,,7.15,WUHU216HW,2013-09-07 00:17:00,
2013-09-06 20:22:00,63.7,50.4,30.13,SSW,203,0.0,1.3,62,2.59,,,7.15,WUHU216HW,2013-09-07 00:22:00,
2013-09-06 20:27:00,63.4,50.1,30.13,South,180,0.0,1.3,62,2.59,,,7.15,WUHU216HW,2013-09-07 00:27:00,
2013-09-06 20:32:00,63.0,50.2,30.13,South,180,0.0,0.9,63,2.59,,,7.15,WUHU216HW,2013-09-07 00:32:00,
2013-09-06 20:37:00,62.8,50.1,30.13,WSW,248,0.7,1.1,63,2.59,,,7.15,WUHU216HW,2013-09-07 00:37:00,
2013-09-06 20:42:00,62.3,50.0,30.13,WSW,248,0.7,1.1,64,2.59,,,7.15,WUHU216HW,2013-09-07 00:42:00,
2013-09-06 20:47:00,61.9,50.1,30.13,WSW,248,0.9,1.3,65,2.59,,,7.15,WUHU216HW,2013-09-07 00:47:00,
2013-09-06 20:52:00,61.7,49.9,30.13,SW,225,0.7,1.3,65,2.59,,,7.15,WUHU216HW,2013-09-07 00:52:00,
2013-09-06 20:57:00,61.6,50.1,30.13,West,270,2.7,2.7,66,2.59,,,7.15,WUHU216HW,2013-09-07 00:57:00,
2013-09-06 21:02:00,61.4,50.0,30.13,WSW,248,1.8,2.7,66,2.59,,,7.47,WUHU216HW,2013-09-07 01:02:00,
2013-09-06 21:07:00,61.0,49.2,30.12,WSW,248,1.3,2.9,65,2.59,,,7.47,WUHU216HW,2013-09-07 01:07:00,
2013-09-06 21:12:00,60.5,49.2,30.12,West,270,1.6,2.9,66,2.59,,,7.47,WUHU216HW,2013-09-07 01:12:00,
2013-09-06 21:17:00,60.3,49.3,30.12,West,270,1.3,2.2,67,2.59,,,7.47,WUHU216HW,2013-09-07 01:17:00,
2013-09-06 21:22:00,60.1,49.1,30.12,West,270,0.7,2.2,67,2.59,,,7.47,WUHU216HW,2013-09-07 01:22:00,
2013-09-06 21:27:00,60.1,49.1,30.12,SW,225,1.1,2.5,67,2.59,,,7.47,WUHU216HW,2013-09-07 01:27:00,
2013-09-06 21:32:00,59.9,49.0,30.12,West,270,1.3,2.5,67,2.59,,,7.47,WUHU216HW,2013-09-07 01:32:00,
2013-09-06 21:37:00,59.8,49.2,30.12,WSW,248,2.0,2.2,68,2.59,,,7.47,WUHU216HW,2013-09-07 01:37:00,
2013-09-06 21:42:00,59.8,49.2,30.11,SW,225,1.1,2.2,68,2.59,,,7.47,WUHU216HW,2013-09-07 01:42:00,
2013-09-06 21:47:00,59.8,49.6,30.11,WSW,248,1.8,2.2,69,2.59,,,7.47,WUHU216HW,2013-09-07 01:47:00,
2013-09-06 21:52:00,59.8,49.6,30.11,WSW,248,0.9,2.5,69,2.59,,,7.47,WUHU216HW,2013-09-07 01:52:00,
2013-09-06 21:57:00,59.6,49.4,30.11,SW,225,1.8,3.1,69,2.59,,,7.47,WUHU216HW,2013-09-07 01:57:00,
2013-09-06 22:02:00,59.4,49.2,30.11,WSW,248,1.6,3.1,69,2.59,,,7.80,WUHU216HW,2013-09-07 02:02:00,
2013-09-06 22:07:00,59.4,49.2,30.11,SSW,203,1.1,2.2,69,2.59,,,7.80,WUHU216HW,2013-09-07 02:07:00,
2013-09-06 22:12:00,59.4,49.7,30.11,SSW,203,1.1,2.5,70,2.59,,,7.80,WUHU216HW,2013-09-07 02:12:00,
2013-09-06 22:17:00,59.4,49.7,30.11,SW,225,1.1,2.5,70,2.59,,,7.80,WUHU216HW,2013-09-07 02:17:00,
2013-09-06 22:22:00,59.4,49.7,30.11,SW,225,0.9,2.5,70,2.59,,,7.80,WUHU216HW,2013-09-07 02:22:00,
2013-09-06 22:27:00,59.2,49.5,30.11,WSW,248,2.5,2.5,70,2.59,,,7.80,WUHU216HW,2013-09-07 02:27:00,
2013-09-06 22:32:00,59.2,49.5,30.10,WSW,248,1.8,2.5,70,2.59,,,7.80,WUHU216HW,2013-09-07 02:32:00,
2013-09-06 22:37:00,59.0,49.3,30.10,SW,225,0.4,2.5,70,2.59,,,7.80,WUHU216HW,2013-09-07 02:37:00,
2013-09-06 22:42:00,59.0,49.3,30.10,SSW,203,0.2,1.8,70,2.59,,,7.80,WUHU216HW,2013-09-07 02:42:00,
2013-09-06 22:47:00,59.0,49.7,30.10,SSW,203,1.8,2.5,71,2.59,,,7.80,WUHU216HW,2013-09-07 02:47:00,
2013-09-06 22:52:00,58.9,49.5,30.10,SW,225,1.1,2.5,71,2.59,,,7.80,WUHU216HW,2013-09-07 02:52:00,
2013-09-06 22:57:00,58.9,49.5,30.10,SW,225,2.2,2.5,71,2.59,,,7.80,WUHU216HW,2013-09-07 02:57:00,
2013-09-06 23:02:00,58.7,49.7,30.10,WSW,248,0.7,2.5,72,2.59,,,8.13,WUHU216HW,2013-09-07 03:02:00,
2013-09-06 23:07:00,58.7,49.7,30.10,SW,225,0.4,2.0,72,2.59,,,8.13,WUHU216HW,2013-09-07 03:07:00,
2013-09-06 23:12:00,58.7,49.7,30.11,WSW,248,0.0,1.8,72,2.59,,,8.13,WUHU216HW,2013-09-07 03:12:00,
2013-09-06 23:17:00,58.5,49.5,30.10,SSW,203,0.0,1.1,72,2.59,,,8.13,WUHU216HW,2013-09-07 03:17:00,
2013-09-06 23:22:00,58.5,49.5,30.10,West,270,1.3,1.6,72,2.59,,,8.13,WUHU216HW,2013-09-07 03:22:00,
2013-09-06 23:27:00,58.3,49.3,30.10,SW,225,0.4,1.8,72,2.59,,,8.13,WUHU216HW,2013-09-07 03:27:00,
2013-09-06 23:32:00,58.3,49.7,30.09,SW,225,2.2,2.2,73,2.59,,,8.13,WUHU216HW,2013-09-07 03:32:00,
2013-09-06 23:37:00,58.1,49.5,30.09,WSW,248,1.8,2.7,73,2.59,,,8.13,WUHU216HW,2013-09-07 03:37:00,
2013-09-06 23:42:00,57.8,49.1,30.09,SSW,203,0.2,2.7,73,2.59,,,8.13,WUHU216HW,2013-09-07 03:42:00,
2013-09-06 23:47:00,57.8,49.1,30.09,SW,225,0.7,2.7,73,2.59,,,8.13,WUHU216HW,2013-09-07 03:47:00,
2013-09-06 23:52:00,57.6,49.0,30.09,WSW,248,1.8,2.7,73,2.59,,,8.13,WUHU216HW,2013-09-07 03:52:00,
2013-09-06 23:57:00,57.6,49.3,30.09,SSW,203,1.8,2.0,74,2.59,,,8.13,WUHU216HW,2013-09-07 03:57:00,